Terminal Aerodrome Forecast
Issued by NWS Boise, ID

Home | Current Version | Previous Version | Text Only | Print | Product List | Glossary On
Versions: 1 2 3 4 5 6 7 8 9 10 11 12 13 14 15 16 17 18 19
000
FTUS45 KBOI 161359 AAB
TAFBNO
TAF AMD
KBNO 161359Z 1614/1712 VRB04KT P6SM SCT005
      TEMPO 1614/1618 2SM BR BKN005
     FM161900 VRB03KT 6SM BR SKC
     FM170700 00000KT 1SM BR BKN005=

USA.gov is the U.S. government's official web portal to all federal, state and local government web resources and services.